Aviation Digital Data Service (ADDS)

Output produced by METARs form (0156 UTC 28 February 2015)
found at http://aviationweather.gov/adds/metars/
 
KAGC 272327Z 2800/2824 31007KT P6SM SKC 
     FM280200 VRB02KT P6SM FEW200 
     FM281600 09005KT P6SM SCT030 BKN250